createdAt,value
2022-10-17T00:01:08.741Z,101550.55
2022-10-17T00:03:38.515Z,101554.39
2022-10-17T00:06:09.205Z,101552.25
2022-10-17T00:08:40.755Z,101555.80
2022-10-17T00:11:14.977Z,101557.92
2022-10-17T00:13:42.878Z,101561.28
2022-10-17T00:16:11.164Z,101563.10
2022-10-17T00:18:39.076Z,101566.95
2022-10-17T00:21:14.772Z,101571.52
2022-10-17T00:23:42.739Z,101577.54
2022-10-17T00:26:10.809Z,101576.35
2022-10-17T00:28:38.746Z,101579.12
2022-10-17T00:31:07.864Z,101583.48
2022-10-17T00:33:36.285Z,101586.48
2022-10-17T00:36:12.760Z,101589.09
2022-10-17T00:38:42.838Z,101588.27
2022-10-17T00:41:12.610Z,101596.83
2022-10-17T00:43:54.833Z,101600.45
2022-10-17T00:46:24.544Z,101601.41
2022-10-17T00:48:55.053Z,101600.25
2022-10-17T00:51:50.030Z,101598.40
2022-10-17T00:54:22.802Z,101599.91
2022-10-17T00:56:51.428Z,101605.23
2022-10-17T00:59:22.036Z,101602.38
2022-10-17T01:02:09.856Z,101602.84
2022-10-17T01:04:41.040Z,101602.39
2022-10-17T01:07:09.744Z,101600.73
2022-10-17T01:09:39.728Z,101600.73
2022-10-17T01:12:23.966Z,101602.48
2022-10-17T01:15:13.263Z,101603.83
2022-10-17T01:17:59.429Z,101603.27
2022-10-17T01:20:42.771Z,101601.30
2022-10-17T01:23:44.497Z,101598.07
2022-10-17T01:26:15.797Z,101596.48
2022-10-17T01:29:08.774Z,101597.66
2022-10-17T01:31:51.941Z,101596.55
2022-10-17T01:34:36.350Z,101599.55
2022-10-17T01:37:11.972Z,101600.45
2022-10-17T01:40:00.391Z,101597.30
2022-10-17T01:42:44.348Z,101598.53
2022-10-17T01:45:21.014Z,101598.05
2022-10-17T01:47:52.891Z,101597.20
2022-10-17T01:50:29.484Z,101595.29
2022-10-17T01:53:05.228Z,101595.80
2022-10-17T01:55:37.884Z,101594.92
2022-10-17T01:58:20.091Z,101597.96
2022-10-17T02:00:49.717Z,101600.63
2022-10-17T02:03:20.725Z,101601.39
2022-10-17T02:05:49.213Z,101604.27
2022-10-17T02:08:28.603Z,101607.91
2022-10-17T02:11:05.668Z,101606.30
2022-10-17T02:13:49.264Z,101604.89
2022-10-17T02:16:42.939Z,101601.37
2022-10-17T02:19:32.885Z,101600.55
2022-10-17T02:22:21.103Z,101602.00
2022-10-17T02:25:00.690Z,101605.22
2022-10-17T02:27:42.233Z,101604.70
2022-10-17T02:30:55.208Z,101603.02
2022-10-17T02:33:35.508Z,101604.10
2022-10-17T02:36:11.667Z,101603.36
2022-10-17T02:38:41.843Z,101599.81
2022-10-17T02:41:13.717Z,101597.02
2022-10-17T02:43:45.406Z,101598.48
2022-10-17T02:46:21.297Z,101604.85
2022-10-17T02:49:06.136Z,101609.41
2022-10-17T02:52:02.696Z,101612.31
2022-10-17T02:54:41.834Z,101613.07
2022-10-17T02:57:38.481Z,101613.36
2022-10-17T03:00:09.919Z,101613.29
2022-10-17T03:02:47.535Z,101616.27
2022-10-17T03:05:28.482Z,101618.44
2022-10-17T03:07:57.031Z,101620.59
2022-10-17T03:10:25.960Z,101623.71
2022-10-17T03:12:54.251Z,101627.61
2022-10-17T03:15:22.023Z,101630.25
2022-10-17T03:17:49.775Z,101633.25
2022-10-17T03:20:18.217Z,101633.82
2022-10-17T03:22:46.431Z,101635.42
2022-10-17T03:25:14.197Z,101629.41
2022-10-17T03:27:42.069Z,101636.17
2022-10-17T03:30:10.448Z,101637.69
2022-10-17T03:32:38.248Z,101638.98
2022-10-17T03:35:07.668Z,101639.83
2022-10-17T03:37:36.304Z,101641.28
2022-10-17T03:40:04.586Z,101642.40
2022-10-17T03:42:32.896Z,101643.66
2022-10-17T03:45:01.791Z,101646.81
2022-10-17T03:47:29.912Z,101646.98
2022-10-17T03:49:58.034Z,101645.96
2022-10-17T03:52:26.032Z,101642.98
2022-10-17T03:54:53.971Z,101643.66
2022-10-17T03:57:21.901Z,101648.32
2022-10-17T03:59:52.653Z,101650.06
2022-10-17T04:02:21.370Z,101652.69
2022-10-17T04:04:50.514Z,101655.15
2022-10-17T04:07:18.375Z,101659.55
2022-10-17T04:09:46.620Z,101660.60
2022-10-17T04:12:19.128Z,101660.42
2022-10-17T04:14:47.444Z,101659.23
2022-10-17T04:17:15.641Z,101656.96
2022-10-17T04:19:43.511Z,101659.95
2022-10-17T04:22:11.430Z,101663.80
2022-10-17T04:24:40.096Z,101666.20
2022-10-17T04:27:16.273Z,101666.20
2022-10-17T04:29:45.854Z,101668.66
2022-10-17T04:32:23.231Z,101670.22
2022-10-17T04:34:57.452Z,101669.35
2022-10-17T04:37:25.301Z,101672.48
2022-10-17T04:39:54.586Z,101675.59
2022-10-17T04:42:22.716Z,101671.58
2022-10-17T04:44:52.435Z,101671.08
2022-10-17T04:47:20.191Z,101673.52
2022-10-17T04:49:48.919Z,101677.25
2022-10-17T04:52:17.046Z,101680.98
2022-10-17T04:54:46.288Z,101681.23
2022-10-17T04:57:14.997Z,101684.92
2022-10-17T04:59:46.742Z,101684.26
2022-10-17T05:02:19.649Z,101681.65
2022-10-17T05:04:47.762Z,101682.97
2022-10-17T05:07:16.075Z,101684.66
2022-10-17T05:10:03.630Z,101685.06
2022-10-17T05:12:32.735Z,101688.27
2022-10-17T05:15:00.834Z,101687.47
2022-10-17T05:17:29.364Z,101694.28
2022-10-17T05:19:57.504Z,101698.35
2022-10-17T05:22:25.431Z,101695.55
2022-10-17T05:24:53.296Z,101699.38
2022-10-17T05:27:21.448Z,101702.66
2022-10-17T05:29:49.296Z,101704.30
2022-10-17T05:32:22.737Z,101709.73
2022-10-17T05:34:51.108Z,101717.17
2022-10-17T05:37:19.893Z,101721.45
2022-10-17T05:39:53.036Z,101720.86
2022-10-17T05:42:21.336Z,101716.75
2022-10-17T05:44:49.314Z,101717.13
2022-10-17T05:47:18.929Z,101720.48
2022-10-17T05:49:51.470Z,101722.95
2022-10-17T05:52:24.049Z,101726.27
2022-10-17T05:55:03.970Z,101730.27
2022-10-17T05:57:32.865Z,101731.49
2022-10-17T06:00:01.447Z,101737.42
2022-10-17T06:02:46.136Z,101742.88
2022-10-17T06:05:16.224Z,101748.79
2022-10-17T06:07:48.140Z,101755.73
2022-10-17T06:10:17.353Z,101758.64
2022-10-17T06:12:45.964Z,101762.04
2022-10-17T06:15:14.465Z,101766.88
2022-10-17T06:17:45.285Z,101770.31
2022-10-17T06:20:13.002Z,101771.83
2022-10-17T06:22:40.728Z,101771.21
2022-10-17T06:25:14.873Z,101772.55
2022-10-17T06:27:43.168Z,101773.51
2022-10-17T06:30:12.497Z,101780.42
2022-10-17T06:32:40.361Z,101784.75
2022-10-17T06:35:08.653Z,101787.85
2022-10-17T06:37:38.008Z,101792.13
2022-10-17T06:40:11.997Z,101794.86
2022-10-17T06:42:40.134Z,101798.30
2022-10-17T06:45:28.174Z,101800.15
2022-10-17T06:48:08.173Z,101807.91
2022-10-17T06:50:43.686Z,101809.25
2022-10-17T06:53:15.004Z,101813.86
2022-10-17T06:56:04.341Z,101814.60
2022-10-17T06:58:49.546Z,101812.88
2022-10-17T07:01:31.954Z,101818.55
2022-10-17T07:04:01.797Z,101821.59
2022-10-17T07:06:32.208Z,101821.34
2022-10-17T07:09:06.873Z,101824.56
2022-10-17T07:11:37.223Z,101827.05
2022-10-17T07:14:05.116Z,101824.41
2022-10-17T07:16:34.918Z,101830.11
2022-10-17T07:19:12.551Z,101832.31
2022-10-17T07:21:40.649Z,101835.21
2022-10-17T07:24:10.394Z,101840.92
2022-10-17T07:26:39.297Z,101841.39
2022-10-17T07:29:08.155Z,101844.81
2022-10-17T07:31:45.559Z,101845.65
2022-10-17T07:34:13.737Z,101845.44
2022-10-17T07:36:41.703Z,101847.37
2022-10-17T07:39:10.151Z,101847.27
2022-10-17T07:41:39.179Z,101844.73
2022-10-17T07:44:07.639Z,101845.56
2022-10-17T07:46:40.855Z,101846.36
2022-10-17T07:49:09.030Z,101849.46
2022-10-17T07:51:36.951Z,101852.90
2022-10-17T07:54:06.158Z,101851.21
2022-10-17T07:56:34.059Z,101854.95
2022-10-17T07:59:05.152Z,101850.10
2022-10-17T08:01:37.164Z,101854.14
2022-10-17T08:04:05.135Z,101857.13
2022-10-17T08:06:33.000Z,101856.63
2022-10-17T08:09:02.091Z,101859.74
2022-10-17T08:11:30.065Z,101859.06
2022-10-17T08:13:57.929Z,101857.16
2022-10-17T08:16:25.706Z,101857.24
2022-10-17T08:18:53.986Z,101853.93
2022-10-17T08:21:22.033Z,101851.73
2022-10-17T08:23:50.003Z,101853.88
2022-10-17T08:26:20.148Z,101853.86
2022-10-17T08:28:48.973Z,101855.30
2022-10-17T08:31:19.162Z,101854.55
2022-10-17T08:33:48.948Z,101854.70
2022-10-17T08:36:19.573Z,101855.77
2022-10-17T08:38:51.811Z,101850.95
2022-10-17T08:41:39.570Z,101850.06
2022-10-17T08:44:25.695Z,101846.45
2022-10-17T08:46:59.068Z,101849.38
2022-10-17T08:49:49.090Z,101846.43
2022-10-17T08:52:32.451Z,101843.27
2022-10-17T08:55:00.554Z,101843.11
2022-10-17T08:57:29.387Z,101840.39
2022-10-17T08:59:57.927Z,101839.13
2022-10-17T09:02:57.702Z,101843.02
2022-10-17T09:05:28.675Z,101846.13
2022-10-17T09:07:59.208Z,101850.11
2022-10-17T09:10:39.273Z,101852.76
2022-10-17T09:13:23.982Z,101845.84
2022-10-17T09:16:01.347Z,101846.20
2022-10-17T09:18:33.964Z,101848.77
2022-10-17T09:21:19.678Z,101852.17
2022-10-17T09:24:03.770Z,101850.98
2022-10-17T09:26:40.462Z,101854.08
2022-10-17T09:29:23.532Z,101851.98
2022-10-17T09:32:01.463Z,101849.45
2022-10-17T09:34:32.353Z,101851.39
2022-10-17T09:37:01.502Z,101852.42
2022-10-17T09:39:33.237Z,101853.88
2022-10-17T09:42:02.197Z,101856.16
2022-10-17T09:44:54.672Z,101854.89
2022-10-17T09:47:30.290Z,101851.63
2022-10-17T09:49:58.152Z,101854.84
2022-10-17T09:52:25.928Z,101852.95
2022-10-17T09:55:07.365Z,101855.04
2022-10-17T09:58:01.890Z,101856.48
2022-10-17T10:00:31.256Z,101849.20
2022-10-17T10:03:11.139Z,101847.59
2022-10-17T10:05:40.645Z,101848.25
2022-10-17T10:08:19.857Z,101844.49
2022-10-17T10:10:59.540Z,101838.77
2022-10-17T10:13:27.591Z,101836.42
2022-10-17T10:16:14.754Z,101835.41
2022-10-17T10:18:43.304Z,101834.17
2022-10-17T10:21:17.710Z,101835.52
2022-10-17T10:24:04.119Z,101829.30
2022-10-17T10:26:34.759Z,101830.27
2022-10-17T10:29:20.516Z,101827.35
2022-10-17T10:31:49.824Z,101824.91
2022-10-17T10:34:24.677Z,101823.96
2022-10-17T10:37:02.953Z,101821.50
2022-10-17T10:39:36.256Z,101816.55
2022-10-17T10:42:08.420Z,101819.11
2022-10-17T10:44:39.657Z,101814.11
2022-10-17T10:47:15.654Z,101811.94
2022-10-17T10:49:44.005Z,101812.70
2022-10-17T10:52:20.262Z,101813.70
2022-10-17T10:54:59.652Z,101809.84
2022-10-17T10:57:31.528Z,101808.46
2022-10-17T11:00:19.092Z,101805.46
2022-10-17T11:03:13.885Z,101802.50
2022-10-17T11:05:53.500Z,101798.23
2022-10-17T11:08:36.754Z,101794.06
2022-10-17T11:11:18.160Z,101792.81
2022-10-17T11:14:02.594Z,101790.19
2022-10-17T11:16:40.262Z,101785.02
2022-10-17T11:19:08.160Z,101782.60
2022-10-17T11:21:48.621Z,101784.40
2022-10-17T11:24:16.484Z,101779.52
2022-10-17T11:27:05.958Z,101778.73
2022-10-17T11:29:40.414Z,101772.53
2022-10-17T11:32:15.653Z,101769.86
2022-10-17T11:34:48.326Z,101771.01
2022-10-17T11:37:22.798Z,101770.67
2022-10-17T11:40:02.068Z,101769.65
2022-10-17T11:42:46.099Z,101768.79
2022-10-17T11:45:22.337Z,101768.50
2022-10-17T11:48:00.974Z,101761.85
2022-10-17T11:53:31.482Z,101758.30
2022-10-17T11:56:01.870Z,101757.29
2022-10-17T11:58:46.509Z,101753.29
2022-10-17T12:01:16.906Z,101753.06
2022-10-17T12:04:08.506Z,101753.95
2022-10-17T12:06:56.803Z,101752.54
2022-10-17T12:09:49.040Z,101750.60
2022-10-17T12:12:29.544Z,101749.97
2022-10-17T12:15:13.241Z,101749.11
2022-10-17T12:17:44.934Z,101747.67
2022-10-17T12:20:23.712Z,101744.73
2022-10-17T12:23:05.201Z,101742.22
2022-10-17T12:25:35.983Z,101742.17
2022-10-17T12:28:25.833Z,101744.92
2022-10-17T12:30:53.685Z,101738.98
2022-10-17T12:33:30.867Z,101738.50
2022-10-17T12:36:31.003Z,101736.82
2022-10-17T12:39:01.927Z,101734.09
2022-10-17T12:41:39.039Z,101737.40
2022-10-17T12:44:13.033Z,101734.61
2022-10-17T12:46:59.488Z,101732.38
2022-10-17T12:49:47.263Z,101729.97
2022-10-17T12:52:35.208Z,101727.02
2022-10-17T12:55:18.551Z,101725.30
2022-10-17T12:58:05.740Z,101722.60
2022-10-17T13:00:59.510Z,101718.66
2022-10-17T13:03:35.172Z,101715.77
2022-10-17T13:06:04.970Z,101717.50
2022-10-17T13:08:43.114Z,101716.55
2022-10-17T13:11:13.463Z,101710.48
2022-10-17T13:13:49.956Z,101707.73
2022-10-17T13:16:56.544Z,101704.44
2022-10-17T13:19:29.977Z,101705.56
2022-10-17T13:22:06.330Z,101706.39
2022-10-17T13:24:40.481Z,101707.80
2022-10-17T13:27:35.623Z,101706.63
2022-10-17T13:30:24.811Z,101706.55
2022-10-17T13:32:54.982Z,101708.36
2022-10-17T13:38:26.994Z,101706.84
2022-10-17T13:41:01.690Z,101704.64
2022-10-17T13:43:39.065Z,101702.42
2022-10-17T13:46:32.474Z,101702.73
2022-10-17T13:49:11.710Z,101698.30
2022-10-17T13:51:45.004Z,101696.22
2022-10-17T13:54:42.259Z,101693.13
2022-10-17T13:57:27.392Z,101687.95
2022-10-17T14:00:01.916Z,101691.86
2022-10-17T14:02:41.075Z,101690.44
2022-10-17T14:05:20.043Z,101686.45
2022-10-17T14:08:15.267Z,101689.00
2022-10-17T14:10:45.392Z,101687.65
2022-10-17T14:13:25.549Z,101688.79
2022-10-17T14:15:56.010Z,101688.77
2022-10-17T14:18:36.471Z,101686.33
2022-10-17T14:24:14.388Z,101688.59
2022-10-17T14:26:50.001Z,101686.32
2022-10-17T14:29:25.180Z,101689.41
2022-10-17T14:32:05.742Z,101688.66
2022-10-17T14:34:35.882Z,101686.52
2022-10-17T14:37:11.036Z,101690.63
2022-10-17T14:39:39.266Z,101687.77
2022-10-17T14:42:07.357Z,101689.53
2022-10-17T14:44:36.642Z,101682.80
2022-10-17T14:47:30.768Z,101682.86
2022-10-17T14:50:06.357Z,101681.86
2022-10-17T14:52:35.229Z,101685.99
2022-10-17T14:55:22.892Z,101685.17
2022-10-17T14:57:50.685Z,101685.25
2022-10-17T15:00:20.936Z,101682.29
2022-10-17T15:02:50.249Z,101682.92
2022-10-17T15:05:19.680Z,101683.28
2022-10-17T15:07:47.448Z,101680.48
2022-10-17T15:10:34.357Z,101683.08
2022-10-17T15:13:26.681Z,101686.14
2022-10-17T15:15:52.468Z,101683.53
2022-10-17T15:18:20.465Z,101685.49
2022-10-17T15:20:55.242Z,101687.25
2022-10-17T15:23:32.637Z,101687.03
2022-10-17T15:26:01.801Z,101687.42
2022-10-17T15:28:29.914Z,101689.19
2022-10-17T15:30:57.938Z,101692.91
2022-10-17T15:33:26.479Z,101696.48
2022-10-17T15:35:54.756Z,101698.30
2022-10-17T15:38:22.666Z,101701.39
2022-10-17T15:40:52.083Z,101703.79
2022-10-17T15:43:20.237Z,101706.67
2022-10-17T15:45:48.825Z,101709.77
2022-10-17T15:48:23.358Z,101708.05
2022-10-17T15:50:51.094Z,101709.55
2022-10-17T15:53:19.494Z,101711.27
2022-10-17T15:55:50.921Z,101710.49
2022-10-17T15:58:19.914Z,101708.45
2022-10-17T16:00:48.689Z,101707.66
2022-10-17T16:03:17.078Z,101710.35
2022-10-17T16:05:44.982Z,101710.18
2022-10-17T16:08:12.936Z,101707.54
2022-10-17T16:10:43.568Z,101708.73
2022-10-17T16:13:21.010Z,101709.45
2022-10-17T16:15:49.019Z,101711.72
2022-10-17T16:18:16.987Z,101712.05
2022-10-17T16:20:44.818Z,101712.31
2022-10-17T16:23:14.071Z,101716.49
2022-10-17T16:25:42.229Z,101715.74
2022-10-17T16:28:12.056Z,101717.81
2022-10-17T16:30:44.797Z,101716.51
2022-10-17T16:33:12.752Z,101718.55
2022-10-17T16:35:40.663Z,101718.01
2022-10-17T16:38:08.456Z,101720.27
2022-10-17T16:40:38.644Z,101726.16
2022-10-17T16:43:07.319Z,101727.87
2022-10-17T16:45:36.200Z,101733.56
2022-10-17T16:48:04.696Z,101732.40
2022-10-17T16:50:35.742Z,101729.63
2022-10-17T16:53:04.217Z,101731.79
2022-10-17T16:55:32.086Z,101733.28
2022-10-17T16:58:00.199Z,101736.27
2022-10-17T17:00:28.273Z,101736.30
2022-10-17T17:02:56.091Z,101739.15
2022-10-17T17:05:23.974Z,101735.04
2022-10-17T17:07:51.825Z,101740.01
2022-10-17T17:10:19.689Z,101742.14
2022-10-17T17:12:47.557Z,101740.25
2022-10-17T17:15:15.560Z,101742.27
2022-10-17T17:17:53.492Z,101744.09
2022-10-17T17:20:23.036Z,101742.92
2022-10-17T17:22:55.045Z,101742.11
2022-10-17T17:25:23.165Z,101742.34
2022-10-17T17:27:51.030Z,101744.08
2022-10-17T17:30:18.807Z,101745.10
2022-10-17T17:32:46.881Z,101744.02
2022-10-17T17:35:14.703Z,101743.36
2022-10-17T17:37:42.459Z,101743.23
2022-10-17T17:40:11.185Z,101749.31
2022-10-17T17:42:39.150Z,101750.96
2022-10-17T17:45:07.702Z,101750.14
2022-10-17T17:47:35.905Z,101751.28
2022-10-17T17:50:04.295Z,101752.86
2022-10-17T17:52:32.776Z,101750.48
2022-10-17T17:55:00.844Z,101750.11
2022-10-17T17:57:30.218Z,101749.48
2022-10-17T17:59:58.206Z,101747.77
2022-10-17T18:02:26.179Z,101745.91
2022-10-17T18:04:54.146Z,101748.59
2022-10-17T18:07:23.321Z,101748.43
2022-10-17T18:09:51.820Z,101749.85
2022-10-17T18:12:19.794Z,101749.36
2022-10-17T18:14:48.170Z,101746.20
2022-10-17T18:17:16.140Z,101749.26
2022-10-17T18:19:43.939Z,101753.17
2022-10-17T18:22:11.719Z,101752.95
2022-10-17T18:24:39.843Z,101752.52
2022-10-17T18:27:07.812Z,101751.23
2022-10-17T18:29:35.986Z,101752.30
2022-10-17T18:32:04.156Z,101749.60
2022-10-17T18:34:32.122Z,101751.86
2022-10-17T18:37:00.296Z,101753.36
2022-10-17T18:39:28.980Z,101757.80
2022-10-17T18:41:57.464Z,101756.80
2022-10-17T18:44:25.839Z,101758.39
2022-10-17T18:46:53.779Z,101756.27
2022-10-17T18:49:25.778Z,101753.41
2022-10-17T18:51:53.634Z,101755.85
2022-10-17T18:54:22.220Z,101754.40
2022-10-17T18:56:52.322Z,101755.23
2022-10-17T18:59:21.230Z,101756.55
2022-10-17T19:01:49.548Z,101755.97
2022-10-17T19:04:17.883Z,101753.83
2022-10-17T19:06:46.061Z,101751.92
2022-10-17T19:09:15.252Z,101750.88
2022-10-17T19:11:45.805Z,101752.39
2022-10-17T19:14:14.827Z,101750.65
2022-10-17T19:16:50.817Z,101751.80
2022-10-17T19:19:24.595Z,101751.21
2022-10-17T19:21:53.753Z,101752.05
2022-10-17T19:24:24.623Z,101753.59
2022-10-17T19:26:56.047Z,101753.09
2022-10-17T19:29:27.168Z,101758.16
2022-10-17T19:34:23.817Z,101756.04
2022-10-17T19:36:51.800Z,101754.92
2022-10-17T19:39:23.321Z,101753.04
2022-10-17T19:41:51.387Z,101757.25
2022-10-17T19:44:19.273Z,101759.30
2022-10-17T19:46:49.116Z,101761.41
2022-10-17T19:49:17.057Z,101759.44
2022-10-17T19:51:45.098Z,101759.19
2022-10-17T19:54:13.094Z,101756.36
2022-10-17T19:56:43.531Z,101756.42
2022-10-17T19:59:14.087Z,101757.95
2022-10-17T20:01:42.404Z,101756.48
2022-10-17T20:04:12.542Z,101758.34
2022-10-17T20:06:41.436Z,101757.36
2022-10-17T20:09:16.715Z,101757.98
2022-10-17T20:11:46.242Z,101761.27
2022-10-17T20:14:13.940Z,101762.91
2022-10-17T20:16:44.832Z,101760.85
2022-10-17T20:19:13.870Z,101759.66
2022-10-17T20:21:44.610Z,101756.38
2022-10-17T20:24:15.440Z,101754.93
2022-10-17T20:26:44.997Z,101749.97
2022-10-17T20:29:19.259Z,101747.99
2022-10-17T20:31:48.418Z,101751.63
2022-10-17T20:34:18.198Z,101750.73
2022-10-17T20:36:47.261Z,101749.00
2022-10-17T20:39:16.535Z,101749.38
2022-10-17T20:41:45.355Z,101747.77
2022-10-17T20:44:13.728Z,101747.38
2022-10-17T20:46:48.647Z,101748.81
2022-10-17T20:49:25.556Z,101749.04
2022-10-17T20:51:53.505Z,101747.98
2022-10-17T20:54:22.384Z,101746.99
2022-10-17T20:56:50.427Z,101748.25
2022-10-17T20:59:18.465Z,101745.66
2022-10-17T21:01:46.926Z,101743.80
2022-10-17T21:04:44.635Z,101745.27
2022-10-17T21:07:03.579Z,101746.59
2022-10-17T21:09:31.853Z,101746.94
2022-10-17T21:14:36.431Z,101748.29
2022-10-17T21:17:05.462Z,101747.52
2022-10-17T21:19:34.440Z,101747.20
2022-10-17T21:22:02.297Z,101746.26
2022-10-17T21:24:30.944Z,101747.42
2022-10-17T21:26:59.162Z,101747.23
2022-10-17T21:29:27.137Z,101746.61
2022-10-17T21:31:55.004Z,101751.17
2022-10-17T21:34:25.155Z,101747.67
2022-10-17T21:36:53.403Z,101753.30
2022-10-17T21:39:22.992Z,101751.58
2022-10-17T21:41:51.687Z,101746.60
2022-10-17T21:44:22.474Z,101746.03
2022-10-17T21:46:51.514Z,101746.67
2022-10-17T21:49:21.938Z,101747.54
2022-10-17T21:51:50.931Z,101748.00
2022-10-17T21:54:20.277Z,101747.46
2022-10-17T21:56:48.101Z,101747.30
2022-10-17T21:59:16.374Z,101742.16
2022-10-17T22:01:46.234Z,101741.52
2022-10-17T22:04:17.044Z,101740.47
2022-10-17T22:06:46.628Z,101736.84
2022-10-17T22:09:17.240Z,101737.70
2022-10-17T22:11:48.201Z,101739.09
2022-10-17T22:14:18.526Z,101739.29
2022-10-17T22:16:48.232Z,101736.88
2022-10-17T22:19:20.266Z,101735.15
2022-10-17T22:21:48.165Z,101735.65
2022-10-17T22:24:18.213Z,101732.66
2022-10-17T22:26:47.336Z,101736.73
2022-10-17T22:29:15.128Z,101734.34
2022-10-17T22:31:43.307Z,101730.10
2022-10-17T22:34:13.530Z,101731.04
2022-10-17T22:36:42.319Z,101731.46
2022-10-17T22:39:11.094Z,101729.92
2022-10-17T22:41:39.180Z,101729.95
2022-10-17T22:44:07.350Z,101732.13
2022-10-17T22:46:35.531Z,101729.77
2022-10-17T22:49:03.595Z,101728.98
2022-10-17T22:51:31.778Z,101727.38
2022-10-17T22:53:59.540Z,101726.91
2022-10-17T22:56:27.502Z,101727.31
2022-10-17T22:58:55.469Z,101724.76
2022-10-17T23:01:25.051Z,101721.84
2022-10-17T23:03:53.349Z,101721.13
2022-10-17T23:06:22.238Z,101715.05
2022-10-17T23:08:50.720Z,101717.00
2022-10-17T23:11:18.801Z,101713.25
2022-10-17T23:13:46.559Z,101712.41
2022-10-17T23:16:14.525Z,101708.56
2022-10-17T23:18:43.723Z,101707.85
2022-10-17T23:21:12.117Z,101707.34
2022-10-17T23:23:39.898Z,101707.73
2022-10-17T23:26:13.468Z,101707.45
2022-10-17T23:28:42.460Z,101708.17
2022-10-17T23:31:15.341Z,101711.87
2022-10-17T23:33:45.119Z,101710.34
2022-10-17T23:36:15.476Z,101711.39
2022-10-17T23:38:44.673Z,101709.79
2022-10-17T23:41:13.255Z,101709.09
2022-10-17T23:43:41.738Z,101706.45
2022-10-17T23:46:10.014Z,101704.02
2022-10-17T23:48:38.882Z,101702.42
2022-10-17T23:51:08.916Z,101700.82
2022-10-17T23:53:38.117Z,101700.99
2022-10-17T23:56:07.948Z,101701.17
2022-10-17T23:58:36.817Z,101696.02
